sensor_id;sensor_type;location;lat;lon;timestamp;pressure;altitude;pressure_sealevel;temperature;humidity
59170;BME280;52474;52.236;5.114;2023-02-14T00:02:22;103565.28;;;1.12;100.00
59170;BME280;52474;52.236;5.114;2023-02-14T00:04:48;103546.16;;;0.95;100.00
59170;BME280;52474;52.236;5.114;2023-02-14T00:07:14;103567.91;;;1.03;100.00
59170;BME280;52474;52.236;5.114;2023-02-14T00:09:40;103568.78;;;1.03;100.00
59170;BME280;52474;52.236;5.114;2023-02-14T00:12:05;103564.41;;;1.05;100.00
59170;BME280;52474;52.236;5.114;2023-02-14T00:14:32;103559.16;;;1.13;100.00
59170;BME280;52474;52.236;5.114;2023-02-14T00:17:17;103537.47;;;1.03;100.00
59170;BME280;52474;52.236;5.114;2023-02-14T00:19:42;103551.38;;;1.04;100.00
59170;BME280;52474;52.236;5.114;2023-02-14T00:22:08;103567.91;;;1.09;100.00
59170;BME280;52474;52.236;5.114;2023-02-14T00:24:34;103567.03;;;1.02;100.00
59170;BME280;52474;52.236;5.114;2023-02-14T00:27:00;103528.81;;;0.68;100.00
59170;BME280;52474;52.236;5.114;2023-02-14T00:29:28;103559.22;;;0.95;100.00
59170;BME280;52474;52.236;5.114;2023-02-14T00:31:54;103541.84;;;0.77;100.00
59170;BME280;52474;52.236;5.114;2023-02-14T00:34:22;103527.94;;;0.78;100.00
59170;BME280;52474;52.236;5.114;2023-02-14T00:36:48;103554.00;;;0.89;100.00
59170;BME280;52474;52.236;5.114;2023-02-14T00:39:16;103556.63;;;0.90;100.00
59170;BME280;52474;52.236;5.114;2023-02-14T00:41:42;103548.78;;;0.81;100.00
59170;BME280;52474;52.236;5.114;2023-02-14T00:44:09;103556.63;;;0.81;100.00
59170;BME280;52474;52.236;5.114;2023-02-14T00:46:35;103557.50;;;0.80;100.00
59170;BME280;52474;52.236;5.114;2023-02-14T00:49:01;103546.19;;;0.75;100.00
59170;BME280;52474;52.236;5.114;2023-02-14T00:51:28;103544.44;;;0.75;100.00
59170;BME280;52474;52.236;5.114;2023-02-14T00:53:54;103532.28;;;0.76;100.00
59170;BME280;52474;52.236;5.114;2023-02-14T00:56:20;103535.75;;;0.82;100.00
59170;BME280;52474;52.236;5.114;2023-02-14T00:58:46;103507.94;;;0.66;100.00
59170;BME280;52474;52.236;5.114;2023-02-14T01:01:12;103508.81;;;0.65;100.00
59170;BME280;52474;52.236;5.114;2023-02-14T01:03:40;103540.97;;;0.73;100.00
59170;BME280;52474;52.236;5.114;2023-02-14T01:06:07;103527.94;;;0.72;100.00
59170;BME280;52474;52.236;5.114;2023-02-14T01:08:33;103539.25;;;0.68;100.00
59170;BME280;52474;52.236;5.114;2023-02-14T01:11:10;103535.78;;;0.67;100.00
59170;BME280;52474;52.236;5.114;2023-02-14T01:13:36;103527.09;;;0.62;100.00
59170;BME280;52474;52.236;5.114;2023-02-14T01:16:12;103523.59;;;0.64;100.00
59170;BME280;52474;52.236;5.114;2023-02-14T01:18:39;103525.34;;;0.61;100.00
59170;BME280;52474;52.236;5.114;2023-02-14T01:21:17;103521.88;;;0.57;100.00
59170;BME280;52474;52.236;5.114;2023-02-14T01:23:43;103510.56;;;0.60;100.00
59170;BME280;52474;52.236;5.114;2023-02-14T01:26:10;103515.78;;;0.68;100.00
59170;BME280;52474;52.236;5.114;2023-02-14T01:28:36;103514.03;;;0.70;100.00
59170;BME280;52474;52.236;5.114;2023-02-14T01:31:11;103507.06;;;0.66;100.00
59170;BME280;52474;52.236;5.114;2023-02-14T01:33:38;103488.84;;;0.44;100.00
59170;BME280;52474;52.236;5.114;2023-02-14T01:36:05;103516.66;;;0.57;100.00
59170;BME280;52474;52.236;5.114;2023-02-14T01:38:31;103493.19;;;0.40;100.00
59170;BME280;52474;52.236;5.114;2023-02-14T01:40:57;103510.56;;;0.43;100.00
59170;BME280;52474;52.236;5.114;2023-02-14T01:43:23;103519.25;;;0.39;100.00
59170;BME280;52474;52.236;5.114;2023-02-14T01:45:50;103518.38;;;0.41;100.00
59170;BME280;52474;52.236;5.114;2023-02-14T01:48:18;103512.31;;;0.38;100.00
59170;BME280;52474;52.236;5.114;2023-02-14T01:50:46;103515.81;;;0.45;100.00
59170;BME280;52474;52.236;5.114;2023-02-14T01:53:20;103514.03;;;0.31;100.00
59170;BME280;52474;52.236;5.114;2023-02-14T01:55:51;103508.84;;;0.20;100.00
59170;BME280;52474;52.236;5.114;2023-02-14T01:58:24;103513.16;;;0.17;100.00
59170;BME280;52474;52.236;5.114;2023-02-14T02:00:52;103509.69;;;0.15;100.00
59170;BME280;52474;52.236;5.114;2023-02-14T02:03:24;103500.13;;;0.06;100.00
59170;BME280;52474;52.236;5.114;2023-02-14T02:05:54;103507.97;;;0.15;100.00
59170;BME280;52474;52.236;5.114;2023-02-14T02:08:23;103514.03;;;0.16;100.00
59170;BME280;52474;52.236;5.114;2023-02-14T02:10:50;103515.75;;;0.09;100.00
59170;BME280;52474;52.236;5.114;2023-02-14T02:13:20;103503.59;;;0.08;100.00
59170;BME280;52474;52.236;5.114;2023-02-14T02:27:10;103503.59;;;-0.01;100.00
59170;BME280;52474;52.236;5.114;2023-02-14T02:41:03;103512.28;;;-0.07;100.00
59170;BME280;52474;52.236;5.114;2023-02-14T02:43:51;103511.38;;;-0.06;100.00
59170;BME280;52474;52.236;5.114;2023-02-14T02:55:39;103511.38;;;-0.16;100.00
59170;BME280;52474;52.236;5.114;2023-02-14T02:58:26;103508.75;;;-0.23;100.00
59170;BME280;52474;52.236;5.114;2023-02-14T03:00:55;103510.50;;;-0.25;100.00
59170;BME280;52474;52.236;5.114;2023-02-14T03:03:24;103500.91;;;-0.27;100.00
59170;BME280;52474;52.236;5.114;2023-02-14T03:06:09;103490.50;;;-0.27;100.00
59170;BME280;52474;52.236;5.114;2023-02-14T03:08:35;103486.16;;;-0.33;100.00
59170;BME280;52474;52.236;5.114;2023-02-14T03:11:02;103493.09;;;-0.35;100.00
59170;BME280;52474;52.236;5.114;2023-02-14T03:13:42;103496.59;;;-0.34;100.00
59170;BME280;52474;52.236;5.114;2023-02-14T03:23:57;103494.84;;;-0.31;100.00
59170;BME280;52474;52.236;5.114;2023-02-14T03:26:36;103487.03;;;-0.31;100.00
59170;BME280;52474;52.236;5.114;2023-02-14T03:29:12;103440.09;;;-0.60;100.00
59170;BME280;52474;52.236;5.114;2023-02-14T03:32:42;103486.13;;;-0.42;100.00
59170;BME280;52474;52.236;5.114;2023-02-14T03:34:56;103485.28;;;-0.44;100.00
59170;BME280;52474;52.236;5.114;2023-02-14T03:37:33;103489.59;;;-0.43;100.00
59170;BME280;52474;52.236;5.114;2023-02-14T03:42:42;103481.78;;;-0.46;100.00
59170;BME280;52474;52.236;5.114;2023-02-14T03:45:15;103484.38;;;-0.48;100.00
59170;BME280;52474;52.236;5.114;2023-02-14T03:47:44;103480.00;;;-0.52;100.00
59170;BME280;52474;52.236;5.114;2023-02-14T03:50:16;103488.69;;;-0.56;100.00
59170;BME280;52474;52.236;5.114;2023-02-14T03:52:43;103453.06;;;-0.75;100.00
59170;BME280;52474;52.236;5.114;2023-02-14T03:55:14;103472.19;;;-0.61;100.00
59170;BME280;52474;52.236;5.114;2023-02-14T04:00:10;103471.41;;;-0.34;100.00
59170;BME280;52474;52.236;5.114;2023-02-14T04:03:01;103423.59;;;-0.62;100.00
59170;BME280;52474;52.236;5.114;2023-02-14T04:05:29;103485.28;;;-0.35;100.00
59170;BME280;52474;52.236;5.114;2023-02-14T04:07:57;103483.50;;;-0.48;100.00
59170;BME280;52474;52.236;5.114;2023-02-14T04:10:23;103482.66;;;-0.44;100.00
59170;BME280;52474;52.236;5.114;2023-02-14T04:12:49;103485.28;;;-0.38;100.00
59170;BME280;52474;52.236;5.114;2023-02-14T04:15:15;103455.72;;;-0.52;100.00
59170;BME280;52474;52.236;5.114;2023-02-14T04:17:41;103482.66;;;-0.41;100.00
59170;BME280;52474;52.236;5.114;2023-02-14T04:20:26;103487.84;;;-0.49;100.00
59170;BME280;52474;52.236;5.114;2023-02-14T04:22:53;103482.59;;;-0.55;100.00
59170;BME280;52474;52.236;5.114;2023-02-14T04:25:21;103464.31;;;-0.75;100.00
59170;BME280;52474;52.236;5.114;2023-02-14T04:27:47;103475.69;;;-0.59;100.00
59170;BME280;52474;52.236;5.114;2023-02-14T04:30:14;103481.75;;;-0.55;100.00
59170;BME280;52474;52.236;5.114;2023-02-14T04:32:40;103481.72;;;-0.57;100.00
59170;BME280;52474;52.236;5.114;2023-02-14T04:35:06;103448.72;;;-0.72;100.00
59170;BME280;52474;52.236;5.114;2023-02-14T04:37:32;103480.00;;;-0.58;100.00
59170;BME280;52474;52.236;5.114;2023-02-14T04:39:58;103476.59;;;-0.41;100.00
59170;BME280;52474;52.236;5.114;2023-02-14T04:42:24;103474.88;;;-0.33;100.00
59170;BME280;52474;52.236;5.114;2023-02-14T04:44:50;103454.88;;;-0.42;100.00
59170;BME280;52474;52.236;5.114;2023-02-14T04:47:16;103471.41;;;-0.28;100.00
59170;BME280;52474;52.236;5.114;2023-02-14T04:49:42;103458.38;;;-0.37;100.00
59170;BME280;52474;52.236;5.114;2023-02-14T04:52:08;103475.78;;;-0.22;100.00
59170;BME280;52474;52.236;5.114;2023-02-14T04:54:33;103468.81;;;-0.29;100.00
59170;BME280;52474;52.236;5.114;2023-02-14T04:56:59;103458.38;;;-0.41;100.00
59170;BME280;52474;52.236;5.114;2023-02-14T04:59:25;103459.25;;;-0.32;100.00
59170;BME280;52474;52.236;5.114;2023-02-14T05:01:52;103464.47;;;-0.29;100.00
59170;BME280;52474;52.236;5.114;2023-02-14T05:04:18;103474.03;;;-0.18;100.00
59170;BME280;52474;52.236;5.114;2023-02-14T05:06:44;103479.25;;;-0.17;100.00
59170;BME280;52474;52.236;5.114;2023-02-14T05:09:10;103467.09;;;-0.10;100.00
59170;BME280;52474;52.236;5.114;2023-02-14T05:11:36;103471.44;;;-0.09;100.00
59170;BME280;52474;52.236;5.114;2023-02-14T05:14:01;103469.72;;;-0.07;100.00
59170;BME280;52474;52.236;5.114;2023-02-14T05:16:27;103465.34;;;-0.05;100.00
59170;BME280;52474;52.236;5.114;2023-02-14T05:18:53;103465.34;;;-0.05;100.00
59170;BME280;52474;52.236;5.114;2023-02-14T05:21:19;103471.47;;;0.09;100.00
59170;BME280;52474;52.236;5.114;2023-02-14T05:23:45;103468.88;;;0.23;100.00
59170;BME280;52474;52.236;5.114;2023-02-14T05:26:10;103462.78;;;0.10;100.00
59170;BME280;52474;52.236;5.114;2023-02-14T05:28:36;103457.59;;;0.15;100.00
59170;BME280;52474;52.236;5.114;2023-02-14T05:31:05;103446.28;;;-0.01;100.00
59170;BME280;52474;52.236;5.114;2023-02-14T05:33:31;103459.31;;;0.33;100.00
59170;BME280;52474;52.236;5.114;2023-02-14T05:36:00;103473.22;;;0.26;100.00
59170;BME280;52474;52.236;5.114;2023-02-14T05:38:28;103474.94;;;0.27;100.00
59170;BME280;52474;52.236;5.114;2023-02-14T05:40:54;103447.16;;;0.18;100.00
59170;BME280;52474;52.236;5.114;2023-02-14T05:43:20;103467.13;;;0.31;100.00
59170;BME280;52474;52.236;5.114;2023-02-14T05:45:47;103459.31;;;0.40;100.00
59170;BME280;52474;52.236;5.114;2023-02-14T05:48:13;103468.84;;;0.54;100.00
59170;BME280;52474;52.236;5.114;2023-02-14T05:50:39;103465.38;;;0.49;100.00
59170;BME280;52474;52.236;5.114;2023-02-14T05:53:08;103465.38;;;0.42;100.00
59170;BME280;52474;52.236;5.114;2023-02-14T05:55:34;103464.50;;;0.40;100.00
59170;BME280;52474;52.236;5.114;2023-02-14T05:57:59;103461.03;;;0.37;100.00
59170;BME280;52474;52.236;5.114;2023-02-14T06:00:25;103468.84;;;0.51;100.00
59170;BME280;52474;52.236;5.114;2023-02-14T06:02:51;103462.75;;;0.49;100.00
59170;BME280;52474;52.236;5.114;2023-02-14T06:05:17;103454.97;;;0.39;100.00
59170;BME280;52474;52.236;5.114;2023-02-14T06:07:45;103455.81;;;0.37;100.00
59170;BME280;52474;52.236;5.114;2023-02-14T06:10:19;103461.91;;;0.33;100.00
59170;BME280;52474;52.236;5.114;2023-02-14T06:12:47;103461.94;;;0.17;100.00
59170;BME280;52474;52.236;5.114;2023-02-14T06:15:14;103465.41;;;0.27;100.00
59170;BME280;52474;52.236;5.114;2023-02-14T06:17:40;103468.00;;;0.33;100.00
59170;BME280;52474;52.236;5.114;2023-02-14T06:20:06;103456.69;;;0.27;100.00
59170;BME280;52474;52.236;5.114;2023-02-14T06:22:35;103461.91;;;0.37;100.00
59170;BME280;52474;52.236;5.114;2023-02-14T06:25:01;103472.34;;;0.33;100.00
59170;BME280;52474;52.236;5.114;2023-02-14T06:27:31;103461.91;;;0.31;100.00
59170;BME280;52474;52.236;5.114;2023-02-14T06:29:56;103468.00;;;0.42;100.00
59170;BME280;52474;52.236;5.114;2023-02-14T06:32:22;103463.66;;;0.48;100.00
59170;BME280;52474;52.236;5.114;2023-02-14T06:34:49;103469.72;;;0.53;100.00
59170;BME280;52474;52.236;5.114;2023-02-14T06:37:15;103445.41;;;0.40;100.00
59170;BME280;52474;52.236;5.114;2023-02-14T06:39:40;103468.00;;;0.50;100.00
59170;BME280;52474;52.236;5.114;2023-02-14T06:42:06;103473.19;;;0.56;100.00
59170;BME280;52474;52.236;5.114;2023-02-14T06:44:32;103465.38;;;0.53;100.00
59170;BME280;52474;52.236;5.114;2023-02-14T06:46:58;103441.06;;;0.37;100.00
59170;BME280;52474;52.236;5.114;2023-02-14T06:49:23;103446.25;;;0.50;100.00
59170;BME280;52474;52.236;5.114;2023-02-14T06:51:49;103441.94;;;0.47;100.00
59170;BME280;52474;52.236;5.114;2023-02-14T06:54:15;103462.75;;;0.58;100.00
59170;BME280;52474;52.236;5.114;2023-02-14T06:56:41;103460.16;;;0.50;100.00
59170;BME280;52474;52.236;5.114;2023-02-14T06:59:06;103466.22;;;0.49;100.00
59170;BME280;52474;52.236;5.114;2023-02-14T07:01:32;103460.16;;;0.50;100.00
59170;BME280;52474;52.236;5.114;2023-02-14T07:03:58;103468.00;;;0.55;100.00
59170;BME280;52474;52.236;5.114;2023-02-14T07:06:26;103468.84;;;0.58;100.00
59170;BME280;52474;52.236;5.114;2023-02-14T07:08:51;103456.66;;;0.59;100.00
59170;BME280;52474;52.236;5.114;2023-02-14T07:11:17;103452.31;;;0.56;100.00
59170;BME280;52474;52.236;5.114;2023-02-14T07:13:43;103434.06;;;0.53;100.00
59170;BME280;52474;52.236;5.114;2023-02-14T07:16:09;103463.59;;;0.77;100.00
59170;BME280;52474;52.236;5.114;2023-02-14T07:18:35;103443.59;;;0.71;100.00
59170;BME280;52474;52.236;5.114;2023-02-14T07:21:00;103456.63;;;0.87;100.00
59170;BME280;52474;52.236;5.114;2023-02-14T07:23:26;103461.78;;;0.96;100.00
59170;BME280;52474;52.236;5.114;2023-02-14T07:25:54;103461.78;;;1.00;100.00
59170;BME280;52474;52.236;5.114;2023-02-14T07:28:20;103456.56;;;1.06;100.00
59170;BME280;52474;52.236;5.114;2023-02-14T07:30:46;103448.72;;;1.05;100.00
59170;BME280;52474;52.236;5.114;2023-02-14T07:33:12;103466.03;;;1.23;100.00
59170;BME280;52474;52.236;5.114;2023-02-14T07:35:38;103472.13;;;1.29;100.00
59170;BME280;52474;52.236;5.114;2023-02-14T07:38:04;103446.91;;;1.22;100.00
59170;BME280;52474;52.236;5.114;2023-02-14T07:40:30;103473.81;;;1.40;100.00
59170;BME280;52474;52.236;5.114;2023-02-14T07:42:56;103473.78;;;1.46;100.00
59170;BME280;52474;52.236;5.114;2023-02-14T07:45:24;103469.44;;;1.48;100.00
59170;BME280;52474;52.236;5.114;2023-02-14T07:47:53;103478.09;;;1.50;100.00
59170;BME280;52474;52.236;5.114;2023-02-14T07:50:21;103460.75;;;1.43;100.00
59170;BME280;52474;52.236;5.114;2023-02-14T07:52:47;103474.63;;;1.49;100.00
59170;BME280;52474;52.236;5.114;2023-02-14T07:55:13;103479.84;;;1.51;100.00
59170;BME280;52474;52.236;5.114;2023-02-14T07:57:39;103480.75;;;1.48;100.00
59170;BME280;52474;52.236;5.114;2023-02-14T08:00:05;103478.13;;;1.42;100.00
59170;BME280;52474;52.236;5.114;2023-02-14T08:02:37;103475.53;;;1.42;100.00
59170;BME280;52474;52.236;5.114;2023-02-14T08:05:03;103458.19;;;1.34;100.00
59170;BME280;52474;52.236;5.114;2023-02-14T08:07:29;103478.97;;;1.55;100.00
59170;BME280;52474;52.236;5.114;2023-02-14T08:09:55;103453.75;;;1.45;100.00
59170;BME280;52474;52.236;5.114;2023-02-14T08:12:21;103471.94;;;1.66;100.00
59170;BME280;52474;52.236;5.114;2023-02-14T08:15:05;103460.63;;;1.64;100.00
59170;BME280;52474;52.236;5.114;2023-02-14T08:17:49;103470.06;;;1.85;100.00
59170;BME280;52474;52.236;5.114;2023-02-14T08:20:16;103473.50;;;1.93;100.00
59170;BME280;52474;52.236;5.114;2023-02-14T08:22:41;103483.03;;;2.02;100.00
59170;BME280;52474;52.236;5.114;2023-02-14T08:25:07;103484.66;;;2.14;100.00
59170;BME280;52474;52.236;5.114;2023-02-14T08:27:33;103485.50;;;2.21;100.00
59170;BME280;52474;52.236;5.114;2023-02-14T08:29:59;103492.41;;;2.28;100.00
59170;BME280;52474;52.236;5.114;2023-02-14T08:32:25;103485.31;;;2.41;100.00
59170;BME280;52474;52.236;5.114;2023-02-14T08:34:50;103471.38;;;2.42;100.00
59170;BME280;52474;52.236;5.114;2023-02-14T08:37:16;103459.91;;;2.55;100.00
59170;BME280;52474;52.236;5.114;2023-02-14T08:39:42;103476.38;;;2.66;100.00
59170;BME280;52474;52.236;5.114;2023-02-14T08:42:08;103485.03;;;2.73;100.00
59170;BME280;52474;52.236;5.114;2023-02-14T08:44:34;103477.97;;;2.81;100.00
59170;BME280;52474;52.236;5.114;2023-02-14T08:47:00;103476.91;;;2.99;100.00
59170;BME280;52474;52.236;5.114;2023-02-14T08:49:26;103484.72;;;3.04;100.00
59170;BME280;52474;52.236;5.114;2023-02-14T08:51:51;103486.31;;;3.15;100.00
59170;BME280;52474;52.236;5.114;2023-02-14T08:54:19;103484.53;;;3.19;100.00
59170;BME280;52474;52.236;5.114;2023-02-14T08:56:48;103483.50;;;3.31;100.00
59170;BME280;52474;52.236;5.114;2023-02-14T08:59:14;103482.50;;;3.42;100.00
59170;BME280;52474;52.236;5.114;2023-02-14T09:01:40;103476.25;;;3.53;100.00
59170;BME280;52474;52.236;5.114;2023-02-14T09:04:05;103474.41;;;3.59;100.00
59170;BME280;52474;52.236;5.114;2023-02-14T09:06:32;103456.03;;;3.62;100.00
59170;BME280;52474;52.236;5.114;2023-02-14T09:08:57;103468.84;;;3.81;100.00
59170;BME280;52474;52.236;5.114;2023-02-14T09:11:24;103472.06;;;3.98;100.00
59170;BME280;52474;52.236;5.114;2023-02-14T09:13:51;103470.22;;;4.06;100.00
59170;BME280;52474;52.236;5.114;2023-02-14T09:16:18;103467.59;;;4.06;100.00
59170;BME280;52474;52.236;5.114;2023-02-14T09:18:45;103467.31;;;4.23;100.00
59170;BME280;52474;52.236;5.114;2023-02-14T09:21:18;103470.63;;;4.35;100.00
59170;BME280;52474;52.236;5.114;2023-02-14T09:23:51;103465.22;;;4.44;100.00
59170;BME280;52474;52.236;5.114;2023-02-14T09:26:20;103455.59;;;4.44;100.00
59170;BME280;52474;52.236;5.114;2023-02-14T09:28:46;103432.78;;;4.48;100.00
59170;BME280;52474;52.236;5.114;2023-02-14T09:31:13;103460.06;;;4.87;100.00
59170;BME280;52474;52.236;5.114;2023-02-14T09:33:40;103453.72;;;4.96;100.00
59170;BME280;52474;52.236;5.114;2023-02-14T09:36:06;103436.34;;;4.90;100.00
59170;BME280;52474;52.236;5.114;2023-02-14T09:38:44;103440.63;;;4.94;100.00
59170;BME280;52474;52.236;5.114;2023-02-14T09:43:59;103457.31;;;5.34;100.00
59170;BME280;52474;52.236;5.114;2023-02-14T09:46:28;103445.50;;;5.53;100.00
59170;BME280;52474;52.236;5.114;2023-02-14T09:48:57;103448.56;;;5.74;100.00
59170;BME280;52474;52.236;5.114;2023-02-14T09:51:27;103444.59;;;5.93;100.00
59170;BME280;52474;52.236;5.114;2023-02-14T09:54:11;103456.69;;;6.02;100.00
59170;BME280;52474;52.236;5.114;2023-02-14T09:57:03;103453.88;;;6.77;100.00
59170;BME280;52474;52.236;5.114;2023-02-14T09:59:51;103430.09;;;13.36;100.00
59170;BME280;52474;52.236;5.114;2023-02-14T10:02:32;103426.00;;;17.32;100.00
59170;BME280;52474;52.236;5.114;2023-02-14T10:05:13;103406.00;;;18.66;100.00
59170;BME280;52474;52.236;5.114;2023-02-14T10:07:57;103421.75;;;18.82;100.00
59170;BME280;52474;52.236;5.114;2023-02-14T10:10:40;103399.25;;;19.61;100.00
59170;BME280;52474;52.236;5.114;2023-02-14T10:15:44;103416.81;;;20.39;100.00
59170;BME280;52474;52.236;5.114;2023-02-14T10:18:18;103406.63;;;20.43;100.00
59170;BME280;52474;52.236;5.114;2023-02-14T10:20:49;103404.94;;;20.42;100.00
59170;BME280;52474;52.236;5.114;2023-02-14T10:25:56;103412.44;;;20.99;100.00
59170;BME280;52474;52.236;5.114;2023-02-14T10:28:41;103402.16;;;22.12;100.00
59170;BME280;52474;52.236;5.114;2023-02-14T10:33:41;103393.47;;;23.38;97.07
59170;BME280;52474;52.236;5.114;2023-02-14T10:39:03;103362.72;;;23.57;100.00
59170;BME280;52474;52.236;5.114;2023-02-14T10:41:49;103390.47;;;25.73;91.73
59170;BME280;52474;52.236;5.114;2023-02-14T10:44:45;103388.63;;;25.90;84.57
59170;BME280;52474;52.236;5.114;2023-02-14T10:55:36;103369.44;;;26.64;81.71
59170;BME280;52474;52.236;5.114;2023-02-14T10:58:10;103388.94;;;25.38;79.65
59170;BME280;52474;52.236;5.114;2023-02-14T11:00:43;103373.19;;;25.58;82.30
59170;BME280;52474;52.236;5.114;2023-02-14T11:03:12;103387.00;;;26.28;76.78
59170;BME280;52474;52.236;5.114;2023-02-14T11:05:42;103384.69;;;25.35;77.90
59170;BME280;52474;52.236;5.114;2023-02-14T11:08:31;103379.09;;;25.94;75.40
59170;BME280;52474;52.236;5.114;2023-02-14T11:11:03;103373.34;;;25.97;74.26
59170;BME280;52474;52.236;5.114;2023-02-14T11:13:37;103359.75;;;25.23;76.91
59170;BME280;52474;52.236;5.114;2023-02-14T11:16:09;103372.13;;;25.34;74.40
59170;BME280;52474;52.236;5.114;2023-02-14T11:18:37;103366.19;;;25.22;72.31
59170;BME280;52474;52.236;5.114;2023-02-14T11:21:14;103377.06;;;25.39;72.40
59170;BME280;52474;52.236;5.114;2023-02-14T11:23:51;103368.94;;;25.80;72.55
59170;BME280;52474;52.236;5.114;2023-02-14T11:26:30;103367.25;;;25.87;70.03
59170;BME280;52474;52.236;5.114;2023-02-14T11:29:03;103367.56;;;26.00;67.78
59170;BME280;52474;52.236;5.114;2023-02-14T11:31:37;103354.66;;;24.61;70.37
59170;BME280;52474;52.236;5.114;2023-02-14T11:34:37;103366.09;;;24.98;72.02
59170;BME280;52474;52.236;5.114;2023-02-14T11:37:23;103342.63;;;25.39;68.24
59170;BME280;52474;52.236;5.114;2023-02-14T11:39:52;103361.50;;;24.90;72.06
59170;BME280;52474;52.236;5.114;2023-02-14T11:45:00;103342.63;;;25.80;65.02
59170;BME280;52474;52.236;5.114;2023-02-14T11:47:31;103338.63;;;26.32;65.89
59170;BME280;52474;52.236;5.114;2023-02-14T11:49:58;103340.91;;;26.91;61.92
59170;BME280;52474;52.236;5.114;2023-02-14T11:52:27;103331.63;;;27.08;59.96
59170;BME280;52474;52.236;5.114;2023-02-14T11:54:57;103332.44;;;26.86;63.03
59170;BME280;52474;52.236;5.114;2023-02-14T11:57:33;103325.06;;;28.01;58.64
59170;BME280;52474;52.236;5.114;2023-02-14T12:00:13;103323.59;;;28.35;59.17
59170;BME280;52474;52.236;5.114;2023-02-14T12:02:47;103317.94;;;27.25;56.84
59170;BME280;52474;52.236;5.114;2023-02-14T12:05:34;103309.59;;;26.72;57.04
59170;BME280;52474;52.236;5.114;2023-02-14T12:08:04;103288.09;;;26.46;58.69
59170;BME280;52474;52.236;5.114;2023-02-14T12:10:37;103281.88;;;27.60;56.67
59170;BME280;52474;52.236;5.114;2023-02-14T12:13:23;103294.06;;;26.49;56.76
59170;BME280;52474;52.236;5.114;2023-02-14T12:15:55;103285.53;;;25.33;62.58
59170;BME280;52474;52.236;5.114;2023-02-14T12:18:31;103272.97;;;25.48;61.56
59170;BME280;52474;52.236;5.114;2023-02-14T12:24:24;103273.78;;;24.99;62.90
59170;BME280;52474;52.236;5.114;2023-02-14T12:29:53;103271.72;;;25.67;63.68
59170;BME280;52474;52.236;5.114;2023-02-14T12:32:29;103278.22;;;25.25;67.40
59170;BME280;52474;52.236;5.114;2023-02-14T12:35:02;103264.97;;;24.38;67.75
59170;BME280;52474;52.236;5.114;2023-02-14T12:38:12;103276.00;;;24.45;65.83
59170;BME280;52474;52.236;5.114;2023-02-14T12:43:43;103265.91;;;22.25;75.34
59170;BME280;52474;52.236;5.114;2023-02-14T12:49:43;103262.47;;;19.88;93.66
59170;BME280;52474;52.236;5.114;2023-02-14T12:52:31;103256.88;;;22.62;81.64
59170;BME280;52474;52.236;5.114;2023-02-14T12:57:57;103251.81;;;22.49;77.10
59170;BME280;52474;52.236;5.114;2023-02-14T13:06:10;103227.66;;;23.55;73.13
59170;BME280;52474;52.236;5.114;2023-02-14T13:09:03;103228.13;;;22.89;74.46
59170;BME280;52474;52.236;5.114;2023-02-14T13:11:43;103209.31;;;22.51;75.85
59170;BME280;52474;52.236;5.114;2023-02-14T13:16:50;103204.41;;;21.15;84.10
59170;BME280;52474;52.236;5.114;2023-02-14T13:21:48;103210.75;;;16.00;100.00
59170;BME280;52474;52.236;5.114;2023-02-14T13:24:21;103214.75;;;15.55;100.00
59170;BME280;52474;52.236;5.114;2023-02-14T13:26:51;103195.91;;;15.18;100.00
59170;BME280;52474;52.236;5.114;2023-02-14T13:29:32;103204.56;;;14.81;100.00
59170;BME280;52474;52.236;5.114;2023-02-14T13:32:02;103184.19;;;14.25;100.00
59170;BME280;52474;52.236;5.114;2023-02-14T13:34:43;103207.88;;;14.58;100.00
59170;BME280;52474;52.236;5.114;2023-02-14T13:37:12;103187.44;;;14.30;100.00
59170;BME280;52474;52.236;5.114;2023-02-14T13:39:44;103185.94;;;14.26;100.00
59170;BME280;52474;52.236;5.114;2023-02-14T13:42:11;103184.03;;;14.28;100.00
59170;BME280;52474;52.236;5.114;2023-02-14T13:44:46;103176.31;;;14.37;100.00
59170;BME280;52474;52.236;5.114;2023-02-14T13:47:21;103182.50;;;13.81;100.00
59170;BME280;52474;52.236;5.114;2023-02-14T13:49:59;103179.28;;;14.04;100.00
59170;BME280;52474;52.236;5.114;2023-02-14T13:52:41;103164.25;;;13.60;100.00
59170;BME280;52474;52.236;5.114;2023-02-14T13:55:19;103182.63;;;13.65;100.00
59170;BME280;52474;52.236;5.114;2023-02-14T13:58:05;103189.69;;;13.36;100.00
59170;BME280;52474;52.236;5.114;2023-02-14T14:00:41;103186.66;;;13.11;100.00
59170;BME280;52474;52.236;5.114;2023-02-14T14:11:01;103175.38;;;12.46;100.00
59170;BME280;52474;52.236;5.114;2023-02-14T14:16:29;103176.47;;;12.26;100.00
59170;BME280;52474;52.236;5.114;2023-02-14T14:21:38;103172.66;;;11.98;100.00
59170;BME280;52474;52.236;5.114;2023-02-14T14:24:27;103174.94;;;11.89;100.00
59170;BME280;52474;52.236;5.114;2023-02-14T14:27:03;103165.91;;;11.75;100.00
59170;BME280;52474;52.236;5.114;2023-02-14T14:29:36;103172.41;;;11.70;100.00
59170;BME280;52474;52.236;5.114;2023-02-14T14:32:19;103177.94;;;11.65;100.00
59170;BME280;52474;52.236;5.114;2023-02-14T14:34:54;103169.28;;;11.61;100.00
59170;BME280;52474;52.236;5.114;2023-02-14T14:37:24;103158.31;;;11.52;100.00
59170;BME280;52474;52.236;5.114;2023-02-14T14:39:58;103156.50;;;11.52;100.00
59170;BME280;52474;52.236;5.114;2023-02-14T14:42:28;103154.00;;;11.49;100.00
59170;BME280;52474;52.236;5.114;2023-02-14T14:45:00;103152.28;;;11.48;100.00
59170;BME280;52474;52.236;5.114;2023-02-14T14:47:33;103174.13;;;11.53;100.00
59170;BME280;52474;52.236;5.114;2023-02-14T14:50:08;103167.19;;;11.51;100.00
59170;BME280;52474;52.236;5.114;2023-02-14T14:52:41;103168.22;;;11.48;100.00
59170;BME280;52474;52.236;5.114;2023-02-14T14:55:13;103172.75;;;11.46;100.00